createdAt,value
2023-02-18T00:00:30.703Z,0.50
2023-02-18T00:01:30.751Z,0.51
2023-02-18T00:02:29.795Z,0.50
2023-02-18T00:03:30.841Z,0.50
2023-02-18T00:04:30.824Z,0.51
2023-02-18T00:05:30.839Z,0.51
2023-02-18T00:06:30.856Z,0.52
2023-02-18T00:07:30.888Z,0.50
2023-02-18T00:08:29.923Z,0.50
2023-02-18T00:09:30.944Z,0.50
2023-02-18T00:10:30.966Z,0.50
2023-02-18T00:11:29.989Z,0.50
2023-02-18T00:12:31.009Z,0.50
2023-02-18T00:13:31.045Z,0.51
2023-02-18T00:14:31.062Z,0.50
2023-02-18T00:15:31.087Z,0.51
2023-02-18T00:16:30.095Z,0.51
2023-02-18T00:17:31.117Z,0.51
2023-02-18T00:18:31.121Z,0.51
2023-02-18T00:19:30.130Z,0.50
2023-02-18T00:20:30.173Z,0.51
2023-02-18T00:21:31.178Z,0.51
2023-02-18T00:22:30.206Z,0.51
2023-02-18T00:23:31.216Z,0.51
2023-02-18T00:24:31.262Z,0.50
2023-02-18T00:25:31.234Z,0.50
2023-02-18T00:26:30.258Z,0.51
2023-02-18T00:27:31.276Z,0.50
2023-02-18T00:28:31.297Z,0.51
2023-02-18T00:29:31.303Z,0.51
2023-02-18T00:30:31.469Z,0.52
2023-02-18T00:31:31.470Z,0.51
2023-02-18T00:32:31.334Z,0.51
2023-02-18T00:33:30.362Z,0.50
2023-02-18T00:34:30.362Z,0.50
2023-02-18T00:35:30.380Z,0.50
2023-02-18T00:36:31.428Z,0.51
2023-02-18T00:37:33.346Z,0.51
2023-02-18T00:38:31.418Z,0.52
2023-02-18T00:39:31.419Z,0.51
2023-02-18T00:40:31.407Z,0.50
2023-02-18T00:41:31.404Z,0.50
2023-02-18T00:42:31.401Z,0.51
2023-02-18T00:43:31.390Z,0.51
2023-02-18T00:44:30.381Z,0.51
2023-02-18T00:45:31.375Z,0.51
2023-02-18T00:46:31.399Z,0.51
2023-02-18T00:47:30.358Z,0.50
2023-02-18T00:48:31.355Z,0.51
2023-02-18T00:49:31.366Z,0.50
2023-02-18T00:50:31.328Z,0.51
2023-02-18T00:51:31.334Z,0.51
2023-02-18T00:52:31.341Z,0.51
2023-02-18T00:53:31.316Z,0.51
2023-02-18T00:54:30.314Z,0.51
2023-02-18T00:55:31.299Z,0.51
2023-02-18T00:56:31.300Z,0.50
2023-02-18T00:57:30.279Z,0.51
2023-02-18T00:58:31.303Z,0.51
2023-02-18T00:59:31.271Z,0.51
2023-02-18T01:00:31.259Z,0.51
2023-02-18T01:01:30.322Z,0.50
2023-02-18T01:02:30.245Z,0.52
2023-02-18T01:03:31.245Z,0.52
2023-02-18T01:04:30.261Z,0.50
2023-02-18T01:05:31.229Z,0.51
2023-02-18T01:06:31.222Z,0.52
2023-02-18T01:07:31.224Z,0.51
2023-02-18T01:08:31.236Z,0.51
2023-02-18T01:09:31.223Z,0.51
2023-02-18T01:10:30.191Z,0.51
2023-02-18T01:11:30.200Z,0.51
2023-02-18T01:12:31.189Z,0.51
2023-02-18T01:13:31.191Z,0.50
2023-02-18T01:14:31.184Z,0.51
2023-02-18T01:15:30.159Z,0.50
2023-02-18T01:16:31.206Z,0.51
2023-02-18T01:17:31.161Z,0.51
2023-02-18T01:18:31.146Z,0.51
2023-02-18T01:19:31.132Z,0.51
2023-02-18T01:20:30.144Z,0.51
2023-02-18T01:21:31.125Z,0.51
2023-02-18T01:22:31.112Z,0.50
2023-02-18T01:23:31.106Z,0.52
2023-02-18T01:24:31.133Z,0.51
2023-02-18T01:25:31.103Z,0.51
2023-02-18T01:26:30.086Z,0.52
2023-02-18T01:27:30.083Z,0.52
2023-02-18T01:28:31.069Z,0.51
2023-02-18T01:29:31.068Z,0.52
2023-02-18T01:30:31.112Z,0.51
2023-02-18T01:31:31.134Z,0.52
2023-02-18T01:32:30.034Z,0.52
2023-02-18T01:33:30.047Z,0.51
2023-02-18T01:34:31.021Z,0.52
2023-02-18T01:35:31.025Z,0.52
2023-02-18T01:36:30.008Z,0.52
2023-02-18T01:37:31.007Z,0.50
2023-02-18T01:38:30.986Z,0.52
2023-02-18T01:39:31.000Z,0.52
2023-02-18T01:40:30.991Z,0.51
2023-02-18T01:41:30.958Z,0.52
2023-02-18T01:42:29.958Z,0.52
2023-02-18T01:43:30.958Z,0.51
2023-02-18T01:44:30.942Z,0.51
2023-02-18T01:45:30.943Z,0.51
2023-02-18T01:46:29.984Z,0.51
2023-02-18T01:47:30.920Z,0.51
2023-02-18T01:48:30.904Z,0.52
2023-02-18T01:49:30.913Z,0.50
2023-02-18T01:50:29.896Z,0.52
2023-02-18T01:51:30.892Z,0.52
2023-02-18T01:52:30.893Z,0.51
2023-02-18T01:53:29.884Z,0.51
2023-02-18T01:54:30.875Z,0.52
2023-02-18T01:55:29.859Z,0.52
2023-02-18T01:56:30.887Z,0.52
2023-02-18T01:57:30.853Z,0.52
2023-02-18T01:58:30.839Z,0.52
2023-02-18T01:59:30.840Z,0.51
2023-02-18T02:00:30.838Z,0.51
2023-02-18T02:01:30.853Z,0.51
2023-02-18T02:02:30.802Z,0.50
2023-02-18T02:03:29.782Z,0.51
2023-02-18T02:04:30.803Z,0.51
2023-02-18T02:05:29.776Z,0.50
2023-02-18T02:06:30.766Z,0.51
2023-02-18T02:07:29.758Z,0.50
2023-02-18T02:08:29.753Z,0.51
2023-02-18T02:09:29.749Z,0.52
2023-02-18T02:10:30.739Z,0.50
2023-02-18T02:11:30.743Z,0.52
2023-02-18T02:12:30.748Z,0.51
2023-02-18T02:13:30.727Z,0.52
2023-02-18T02:14:30.726Z,0.51
2023-02-18T02:15:29.706Z,0.52
2023-02-18T02:16:30.720Z,0.51
2023-02-18T02:17:29.692Z,0.52
2023-02-18T02:18:30.685Z,0.51
2023-02-18T02:19:30.685Z,0.51
2023-02-18T02:20:30.665Z,0.51
2023-02-18T02:21:30.673Z,0.52
2023-02-18T02:22:30.665Z,0.52
2023-02-18T02:23:30.662Z,0.51
2023-02-18T02:24:29.653Z,0.51
2023-02-18T02:25:30.636Z,0.51
2023-02-18T02:26:29.628Z,0.50
2023-02-18T02:27:30.608Z,0.51
2023-02-18T02:28:30.627Z,0.51
2023-02-18T02:29:30.598Z,0.52
2023-02-18T02:30:30.660Z,0.52
2023-02-18T02:31:30.659Z,0.51
2023-02-18T02:32:30.622Z,0.51
2023-02-18T02:33:29.629Z,0.51
2023-02-18T02:34:30.636Z,0.51
2023-02-18T02:35:31.690Z,0.51
2023-02-18T02:36:30.622Z,0.52
2023-02-18T02:37:29.633Z,0.53
2023-02-18T02:38:30.613Z,0.52
2023-02-18T02:39:29.594Z,0.52
2023-02-18T02:40:30.598Z,0.52
2023-02-18T02:41:29.591Z,0.51
2023-02-18T02:42:29.581Z,0.51
2023-02-18T02:43:29.588Z,0.51
2023-02-18T02:44:30.597Z,0.52
2023-02-18T02:45:29.626Z,0.53
2023-02-18T02:46:30.545Z,0.51
2023-02-18T02:47:30.555Z,0.50
2023-02-18T02:48:29.553Z,0.52
2023-02-18T02:49:30.536Z,0.52
2023-02-18T02:50:29.539Z,0.52
2023-02-18T02:51:30.526Z,0.52
2023-02-18T02:52:30.523Z,0.51
2023-02-18T02:53:30.504Z,0.51
2023-02-18T02:54:30.621Z,0.51
2023-02-18T02:55:30.516Z,0.51
2023-02-18T02:56:30.501Z,0.52
2023-02-18T02:57:30.477Z,0.52
2023-02-18T02:58:29.474Z,0.53
2023-02-18T02:59:29.478Z,0.51
2023-02-18T03:00:29.506Z,0.51
2023-02-18T03:01:30.462Z,0.52
2023-02-18T03:02:30.453Z,0.52
2023-02-18T03:03:30.438Z,0.52
2023-02-18T03:04:30.435Z,0.51
2023-02-18T03:05:29.422Z,0.52
2023-02-18T03:06:30.430Z,0.51
2023-02-18T03:07:30.416Z,0.52
2023-02-18T03:08:30.399Z,0.51
2023-02-18T03:09:30.396Z,0.52
2023-02-18T03:10:30.384Z,0.51
2023-02-18T03:11:29.392Z,0.52
2023-02-18T03:12:30.458Z,0.53
2023-02-18T03:13:30.524Z,0.52
2023-02-18T03:14:30.602Z,0.52
2023-02-18T03:15:29.630Z,0.52
2023-02-18T03:16:30.772Z,0.52
2023-02-18T03:17:30.739Z,0.52
2023-02-18T03:18:30.789Z,0.52
2023-02-18T03:19:30.878Z,0.52
2023-02-18T03:20:30.914Z,0.51
2023-02-18T03:21:30.961Z,0.53
2023-02-18T03:22:29.997Z,0.53
2023-02-18T03:23:31.027Z,0.51
2023-02-18T03:24:31.077Z,0.52
2023-02-18T03:25:31.153Z,0.52
2023-02-18T03:26:30.181Z,0.52
2023-02-18T03:27:31.255Z,0.52
2023-02-18T03:28:30.330Z,0.52
2023-02-18T03:29:31.389Z,0.52
2023-02-18T03:30:31.534Z,0.52
2023-02-18T03:31:30.594Z,0.53
2023-02-18T03:32:31.588Z,0.51
2023-02-18T03:33:31.622Z,0.53
2023-02-18T03:34:31.672Z,0.51
2023-02-18T03:35:31.732Z,0.51
2023-02-18T03:36:31.766Z,0.50
2023-02-18T03:37:30.828Z,0.52
2023-02-18T03:38:31.886Z,0.52
2023-02-18T03:39:31.949Z,0.52
2023-02-18T03:40:31.007Z,0.51
2023-02-18T03:41:32.066Z,0.51
2023-02-18T03:42:31.127Z,0.50
2023-02-18T03:43:31.217Z,0.52
2023-02-18T03:44:32.257Z,0.51
2023-02-18T03:45:32.315Z,0.51
2023-02-18T03:46:31.372Z,0.53
2023-02-18T03:47:32.418Z,0.52
2023-02-18T03:48:32.498Z,0.50
2023-02-18T03:49:32.530Z,0.51
2023-02-18T03:50:31.576Z,0.52
2023-02-18T03:51:31.678Z,0.51
2023-02-18T03:52:32.704Z,0.51
2023-02-18T03:53:31.755Z,0.50
2023-02-18T03:54:31.825Z,0.52
2023-02-18T03:55:32.873Z,0.53
2023-02-18T03:56:32.968Z,0.52
2023-02-18T03:57:33.007Z,0.52
2023-02-18T03:58:33.054Z,0.54
2023-02-18T03:59:33.112Z,0.51
2023-02-18T04:00:33.189Z,0.51
2023-02-18T04:01:33.319Z,0.52
2023-02-18T04:02:33.287Z,0.51
2023-02-18T04:03:33.353Z,0.51
2023-02-18T04:04:33.459Z,0.53
2023-02-18T04:05:32.451Z,0.53
2023-02-18T04:06:33.505Z,0.53
2023-02-18T04:07:33.612Z,0.52
2023-02-18T04:08:33.552Z,0.51
2023-02-18T04:09:33.618Z,0.53
2023-02-18T04:10:33.664Z,0.51
2023-02-18T04:11:32.739Z,0.51
2023-02-18T04:12:33.792Z,0.52
2023-02-18T04:13:33.878Z,0.51
2023-02-18T04:14:33.912Z,0.52
2023-02-18T04:15:33.958Z,0.51
2023-02-18T04:16:33.110Z,0.51
2023-02-18T04:17:33.077Z,0.52
2023-02-18T04:18:34.193Z,0.51
2023-02-18T04:19:34.218Z,0.52
2023-02-18T04:20:34.236Z,0.51
2023-02-18T04:21:34.306Z,0.51
2023-02-18T04:22:33.302Z,0.51
2023-02-18T04:23:34.352Z,0.52
2023-02-18T04:24:34.426Z,0.52
2023-02-18T04:25:34.457Z,0.51
2023-02-18T04:26:34.514Z,0.51
2023-02-18T04:27:34.570Z,0.51
2023-02-18T04:28:34.596Z,0.51
2023-02-18T04:29:33.654Z,0.51
2023-02-18T04:30:33.854Z,0.51
2023-02-18T04:31:33.950Z,0.51
2023-02-18T04:32:34.845Z,0.51
2023-02-18T04:33:34.903Z,0.51
2023-02-18T04:34:34.952Z,0.51
2023-02-18T04:35:35.011Z,0.51
2023-02-18T04:36:35.075Z,0.52
2023-02-18T04:37:35.086Z,0.51
2023-02-18T04:38:35.134Z,0.52
2023-02-18T04:39:35.179Z,0.52
2023-02-18T04:40:35.218Z,0.52
2023-02-18T04:41:35.269Z,0.51
2023-02-18T04:42:35.314Z,0.52
2023-02-18T04:43:35.383Z,0.52
2023-02-18T04:44:34.400Z,0.52
2023-02-18T04:45:35.475Z,0.51
2023-02-18T04:46:34.594Z,0.52
2023-02-18T04:47:34.590Z,0.52
2023-02-18T04:48:35.635Z,0.51
2023-02-18T04:49:35.681Z,0.52
2023-02-18T04:50:35.723Z,0.51
2023-02-18T04:51:35.769Z,0.51
2023-02-18T04:52:34.840Z,0.51
2023-02-18T04:53:35.847Z,0.52
2023-02-18T04:54:35.898Z,0.52
2023-02-18T04:55:35.971Z,0.51
2023-02-18T04:56:35.974Z,0.52
2023-02-18T04:57:36.030Z,0.51
2023-02-18T04:58:35.069Z,0.51
2023-02-18T04:59:35.122Z,0.51
2023-02-18T05:00:35.180Z,0.52
2023-02-18T05:01:36.353Z,0.52
2023-02-18T05:02:36.264Z,0.51
2023-02-18T05:03:36.311Z,0.51
2023-02-18T05:04:36.343Z,0.51
2023-02-18T05:05:36.387Z,0.53
2023-02-18T05:06:36.524Z,0.52
2023-02-18T05:07:36.535Z,0.51
2023-02-18T05:08:35.592Z,0.52
2023-02-18T05:09:36.612Z,0.51
2023-02-18T05:10:36.657Z,0.51
2023-02-18T05:11:36.703Z,0.52
2023-02-18T05:12:36.764Z,0.51
2023-02-18T05:13:36.857Z,0.51
2023-02-18T05:14:35.857Z,0.51
2023-02-18T05:15:36.958Z,0.52
2023-02-18T05:16:36.968Z,0.51
2023-02-18T05:17:37.063Z,0.51
2023-02-18T05:18:37.121Z,0.51
2023-02-18T05:19:36.170Z,0.52
2023-02-18T05:20:37.234Z,0.51
2023-02-18T05:21:36.282Z,0.51
2023-02-18T05:22:37.339Z,0.51
2023-02-18T05:23:36.386Z,0.51
2023-02-18T05:24:37.459Z,0.51
2023-02-18T05:25:37.520Z,0.51
2023-02-18T05:26:36.570Z,0.50
2023-02-18T05:27:36.628Z,0.51
2023-02-18T05:28:37.700Z,0.51
2023-02-18T05:29:37.730Z,0.51
2023-02-18T05:30:37.777Z,0.51
2023-02-18T05:31:37.960Z,0.50
2023-02-18T05:32:37.896Z,0.51
2023-02-18T05:33:37.932Z,0.51
2023-02-18T05:34:36.990Z,0.51
2023-02-18T05:35:38.048Z,0.50
2023-02-18T05:36:38.089Z,0.51
2023-02-18T05:37:37.159Z,0.51
2023-02-18T05:38:38.251Z,0.51
2023-02-18T05:39:37.256Z,0.51
2023-02-18T05:40:37.350Z,0.51
2023-02-18T05:41:38.368Z,0.51
2023-02-18T05:42:38.439Z,0.52
2023-02-18T05:43:37.468Z,0.52
2023-02-18T05:44:38.515Z,0.52
2023-02-18T05:45:38.545Z,0.52
2023-02-18T05:46:38.647Z,0.52
2023-02-18T05:47:37.670Z,0.52
2023-02-18T05:48:38.698Z,0.52
2023-02-18T05:49:38.740Z,0.52
2023-02-18T05:50:38.779Z,0.51
2023-02-18T05:51:38.835Z,0.51
2023-02-18T05:52:38.874Z,0.51
2023-02-18T05:53:38.910Z,0.51
2023-02-18T05:54:37.964Z,0.52
2023-02-18T05:55:39.240Z,0.52
2023-02-18T05:56:38.077Z,0.52
2023-02-18T05:57:38.124Z,0.52
2023-02-18T05:58:39.188Z,0.53
2023-02-18T05:59:39.235Z,0.51
2023-02-18T06:00:38.280Z,0.51
2023-02-18T06:01:38.329Z,0.52
2023-02-18T06:02:39.445Z,0.52
2023-02-18T06:03:39.441Z,0.52
2023-02-18T06:04:39.505Z,0.52
2023-02-18T06:05:38.573Z,0.51
2023-02-18T06:06:39.585Z,0.51
2023-02-18T06:07:39.616Z,0.52
2023-02-18T06:08:39.688Z,0.52
2023-02-18T06:09:39.725Z,0.51
2023-02-18T06:10:39.790Z,0.53
2023-02-18T06:11:38.869Z,0.52
2023-02-18T06:12:39.937Z,0.52
2023-02-18T06:13:39.960Z,0.51
2023-02-18T06:14:42.036Z,0.51
2023-02-18T06:15:39.986Z,0.52
2023-02-18T06:16:39.000Z,0.53
2023-02-18T06:17:40.099Z,0.54
2023-02-18T06:18:39.979Z,0.51
2023-02-18T06:19:39.967Z,0.51
2023-02-18T06:20:39.955Z,0.51
2023-02-18T06:21:39.942Z,0.51
2023-02-18T06:22:39.940Z,0.51
2023-02-18T06:23:39.939Z,0.51
2023-02-18T06:24:39.923Z,0.52
2023-02-18T06:25:39.913Z,0.51
2023-02-18T06:26:39.893Z,0.51
2023-02-18T06:27:38.928Z,0.51
2023-02-18T06:28:39.894Z,0.52
2023-02-18T06:29:39.885Z,0.51
2023-02-18T06:30:39.893Z,0.51
2023-02-18T06:31:40.011Z,0.51
2023-02-18T06:32:39.878Z,0.51
2023-02-18T06:33:38.861Z,0.50
2023-02-18T06:34:38.832Z,0.52
2023-02-18T06:35:39.841Z,0.51
2023-02-18T06:36:39.825Z,0.51
2023-02-18T06:37:39.816Z,0.51
2023-02-18T06:38:39.829Z,0.50
2023-02-18T06:39:38.886Z,0.51
2023-02-18T06:40:39.952Z,0.51
2023-02-18T06:41:39.023Z,0.51
2023-02-18T06:42:40.053Z,0.51
2023-02-18T06:43:39.160Z,0.51
2023-02-18T06:44:39.169Z,0.52
2023-02-18T06:45:40.224Z,0.51
2023-02-18T06:46:40.287Z,0.51
2023-02-18T06:47:40.329Z,0.52
2023-02-18T06:48:39.402Z,0.51
2023-02-18T06:49:40.455Z,0.52
2023-02-18T06:50:42.716Z,0.51
2023-02-18T06:51:39.525Z,0.52
2023-02-18T06:52:40.490Z,0.51
2023-02-18T06:53:40.491Z,0.51
2023-02-18T06:54:40.476Z,0.51
2023-02-18T06:55:40.505Z,0.51
2023-02-18T06:56:40.472Z,0.51
2023-02-18T06:57:40.471Z,0.51
2023-02-18T06:58:40.468Z,0.51
2023-02-18T06:59:40.471Z,0.51
2023-02-18T07:00:40.466Z,0.50
2023-02-18T07:01:40.428Z,0.51
2023-02-18T07:02:40.431Z,0.51
2023-02-18T07:03:39.444Z,0.51
2023-02-18T07:04:40.404Z,0.52
2023-02-18T07:05:39.406Z,0.51
2023-02-18T07:06:40.396Z,0.52
2023-02-18T07:07:40.399Z,0.51
2023-02-18T07:08:40.394Z,0.52
2023-02-18T07:09:40.411Z,0.52
2023-02-18T07:10:39.376Z,0.51
2023-02-18T07:11:40.378Z,0.51
2023-02-18T07:12:40.355Z,0.51
2023-02-18T07:13:40.350Z,0.51
2023-02-18T07:14:40.359Z,0.51
2023-02-18T07:15:39.410Z,0.51
2023-02-18T07:16:40.439Z,0.51
2023-02-18T07:17:40.485Z,0.50
2023-02-18T07:18:40.503Z,0.51
2023-02-18T07:19:40.566Z,0.51
2023-02-18T07:20:40.633Z,0.51
2023-02-18T07:21:39.694Z,0.50
2023-02-18T07:22:40.750Z,0.51
2023-02-18T07:23:40.827Z,0.51
2023-02-18T07:24:39.880Z,0.51
2023-02-18T07:25:40.942Z,0.50
2023-02-18T07:26:41.031Z,0.51
2023-02-18T07:27:41.037Z,0.50
2023-02-18T07:28:41.092Z,0.51
2023-02-18T07:29:41.125Z,0.52
2023-02-18T07:30:41.187Z,0.51
2023-02-18T07:31:41.343Z,0.52
2023-02-18T07:32:41.270Z,0.52
2023-02-18T07:33:41.410Z,0.52
2023-02-18T07:34:40.344Z,0.52
2023-02-18T07:35:41.382Z,0.52
2023-02-18T07:36:41.457Z,0.53
2023-02-18T07:37:40.512Z,0.53
2023-02-18T07:38:42.043Z,0.53
2023-02-18T07:39:41.627Z,0.52
2023-02-18T07:40:40.684Z,0.52
2023-02-18T07:41:41.725Z,0.51
2023-02-18T07:42:40.774Z,0.51
2023-02-18T07:43:41.811Z,0.52
2023-02-18T07:44:41.880Z,0.51
2023-02-18T07:45:41.989Z,0.52
2023-02-18T07:46:41.969Z,0.52
2023-02-18T07:47:41.023Z,0.51
2023-02-18T07:48:41.057Z,0.51
2023-02-18T07:49:42.087Z,0.51
2023-02-18T07:50:42.221Z,0.52
2023-02-18T07:51:42.164Z,0.51
2023-02-18T07:52:42.216Z,0.52
2023-02-18T07:53:42.263Z,0.50
2023-02-18T07:54:42.284Z,0.51
2023-02-18T07:55:42.340Z,0.51
2023-02-18T07:56:42.396Z,0.51
2023-02-18T07:57:41.425Z,0.52
2023-02-18T07:58:42.467Z,0.51
2023-02-18T07:59:42.518Z,0.51
2023-02-18T08:00:42.561Z,0.52
2023-02-18T08:01:42.980Z,0.51
2023-02-18T08:02:41.653Z,0.50
2023-02-18T08:03:41.748Z,0.51
2023-02-18T08:04:42.764Z,0.51
2023-02-18T08:05:42.806Z,0.52
2023-02-18T08:06:42.860Z,0.51
2023-02-18T08:07:42.885Z,0.51
2023-02-18T08:08:41.943Z,0.51
2023-02-18T08:09:42.989Z,0.52
2023-02-18T08:10:43.035Z,0.52
2023-02-18T08:11:43.106Z,0.52
2023-02-18T08:12:43.147Z,0.51
2023-02-18T08:13:42.214Z,0.50
2023-02-18T08:14:43.286Z,0.51
2023-02-18T08:15:43.333Z,0.52
2023-02-18T08:16:42.462Z,0.51
2023-02-18T08:17:43.458Z,0.51
2023-02-18T08:18:42.522Z,0.53
2023-02-18T08:19:43.608Z,0.52
2023-02-18T08:20:43.638Z,0.53
2023-02-18T08:21:42.686Z,0.53
2023-02-18T08:22:42.768Z,0.52
2023-02-18T08:23:43.850Z,0.52
2023-02-18T08:24:42.927Z,0.53
2023-02-18T08:25:43.963Z,0.54
2023-02-18T08:26:58.222Z,0.53
2023-02-18T08:27:44.017Z,0.53
2023-02-18T08:28:44.014Z,0.53
2023-02-18T08:29:42.991Z,0.54
2023-02-18T08:30:44.277Z,0.83
2023-02-18T08:31:44.942Z,1.24
2023-02-18T08:32:44.002Z,1.01
2023-02-18T08:33:43.967Z,0.92
2023-02-18T08:34:43.974Z,0.84
2023-02-18T08:35:43.997Z,0.81
2023-02-18T08:36:43.951Z,0.79
2023-02-18T08:37:52.625Z,0.77
2023-02-18T08:38:43.931Z,0.77
2023-02-18T08:39:42.939Z,0.75
2023-02-18T08:40:42.933Z,0.74
2023-02-18T08:41:43.899Z,0.72
2023-02-18T08:42:43.913Z,0.73
2023-02-18T08:43:42.974Z,0.69
2023-02-18T08:44:42.895Z,0.71
2023-02-18T08:45:43.964Z,0.70
2023-02-18T08:46:42.954Z,0.71
2023-02-18T08:48:15.953Z,0.69
2023-02-18T08:48:43.918Z,0.69
2023-02-18T08:49:43.860Z,0.69
2023-02-18T08:50:42.863Z,0.67
2023-02-18T08:51:43.872Z,0.67
2023-02-18T08:52:42.848Z,0.65
2023-02-18T08:53:42.834Z,0.67
2023-02-18T08:54:42.823Z,0.65
2023-02-18T08:55:43.860Z,0.65
2023-02-18T08:56:43.827Z,0.64
2023-02-18T08:57:42.796Z,0.64
2023-02-18T08:58:42.790Z,0.65
2023-02-18T08:59:42.789Z,0.63
2023-02-18T09:00:43.782Z,0.63
2023-02-18T09:01:43.881Z,0.63
2023-02-18T09:02:42.796Z,0.62
2023-02-18T09:03:42.762Z,0.63
2023-02-18T09:04:43.750Z,0.61
2023-02-18T09:05:43.774Z,0.61
2023-02-18T09:06:42.735Z,0.60
2023-02-18T09:07:42.772Z,0.61
2023-02-18T09:08:42.736Z,0.60
2023-02-18T09:09:43.736Z,0.61
2023-02-18T09:10:44.314Z,0.62
2023-02-18T09:11:43.817Z,0.61
2023-02-18T09:12:42.803Z,0.60
2023-02-18T09:13:43.810Z,0.60
2023-02-18T09:14:42.810Z,0.61
2023-02-18T09:15:42.871Z,0.61
2023-02-18T09:16:43.906Z,0.59
2023-02-18T09:17:43.892Z,0.60
2023-02-18T09:18:43.941Z,0.59
2023-02-18T09:19:42.973Z,0.58
2023-02-18T09:20:43.034Z,0.59
2023-02-18T09:21:43.115Z,0.59
2023-02-18T09:22:43.203Z,0.58
2023-02-18T09:23:44.248Z,0.59
2023-02-18T09:24:44.276Z,0.58
2023-02-18T09:25:43.369Z,0.57
2023-02-18T09:26:43.405Z,0.58
2023-02-18T09:27:43.503Z,0.58
2023-02-18T09:28:44.516Z,0.58
2023-02-18T09:29:44.632Z,0.57
2023-02-18T09:30:44.664Z,0.58
2023-02-18T09:31:44.764Z,0.58
2023-02-18T09:32:43.717Z,0.58
2023-02-18T09:33:45.758Z,0.57
2023-02-18T09:34:44.832Z,0.58
2023-02-18T09:35:44.916Z,0.57
2023-02-18T09:36:43.941Z,0.58
2023-02-18T09:37:45.026Z,0.58
2023-02-18T09:38:45.048Z,0.58
2023-02-18T09:39:45.131Z,0.57
2023-02-18T09:40:45.194Z,0.58
2023-02-18T09:41:45.210Z,0.58
2023-02-18T09:42:45.269Z,0.57
2023-02-18T09:43:44.297Z,0.56
2023-02-18T09:44:45.345Z,0.57
2023-02-18T09:45:45.440Z,0.57
2023-02-18T09:46:44.469Z,0.57
2023-02-18T09:47:44.517Z,0.57
2023-02-18T09:48:44.537Z,0.58
2023-02-18T09:49:44.568Z,0.57
2023-02-18T09:50:44.610Z,0.56
2023-02-18T09:51:44.673Z,0.57
2023-02-18T09:52:45.727Z,0.56
2023-02-18T09:53:45.737Z,0.56
2023-02-18T09:54:45.755Z,0.58
2023-02-18T09:55:45.837Z,0.56
2023-02-18T09:56:45.837Z,0.57
2023-02-18T09:57:45.859Z,0.55
2023-02-18T09:58:45.869Z,0.56
2023-02-18T09:59:45.905Z,0.56
2023-02-18T10:00:45.953Z,0.56
2023-02-18T10:01:46.032Z,0.55
2023-02-18T10:02:45.020Z,0.55
2023-02-18T10:03:45.057Z,0.53
2023-02-18T10:04:46.085Z,0.55
2023-02-18T10:05:46.143Z,0.55
2023-02-18T10:06:45.129Z,0.55
2023-02-18T10:07:45.152Z,0.54
2023-02-18T10:08:45.182Z,0.54
2023-02-18T10:09:46.228Z,0.54
2023-02-18T10:10:46.248Z,0.54
2023-02-18T10:11:46.280Z,0.54
2023-02-18T10:12:46.272Z,0.53
2023-02-18T10:13:46.306Z,0.52
2023-02-18T10:14:46.350Z,0.53
2023-02-18T10:15:45.393Z,0.51
2023-02-18T10:16:46.362Z,0.53
2023-02-18T10:17:47.588Z,0.51
2023-02-18T10:18:46.400Z,0.51
2023-02-18T10:19:46.401Z,0.52
2023-02-18T10:20:45.395Z,0.51
2023-02-18T10:21:46.408Z,0.51
2023-02-18T10:22:45.409Z,0.51
2023-02-18T10:23:45.413Z,0.51
2023-02-18T10:24:46.423Z,0.50
2023-02-18T10:25:45.430Z,0.51
2023-02-18T10:26:45.514Z,0.51
2023-02-18T10:27:45.507Z,0.51
2023-02-18T10:28:46.504Z,0.51
2023-02-18T10:29:46.497Z,0.51
2023-02-18T10:30:45.553Z,0.51
2023-02-18T10:31:46.547Z,0.51
2023-02-18T10:32:45.498Z,0.51
2023-02-18T10:33:46.504Z,0.50
2023-02-18T10:34:46.523Z,0.51
2023-02-18T10:35:46.531Z,0.50
2023-02-18T10:36:46.550Z,0.50
2023-02-18T10:37:45.556Z,0.50
2023-02-18T10:38:46.567Z,0.50
2023-02-18T10:39:45.605Z,0.51
2023-02-18T10:40:46.642Z,0.51
2023-02-18T10:41:45.712Z,0.52
2023-02-18T10:42:46.759Z,0.51
2023-02-18T10:43:45.852Z,0.51
2023-02-18T10:44:45.856Z,0.50
2023-02-18T10:45:46.920Z,0.51
2023-02-18T10:46:45.961Z,0.50
2023-02-18T10:47:46.969Z,0.50
2023-02-18T10:48:46.994Z,0.51
2023-02-18T10:49:47.050Z,0.51
2023-02-18T10:50:47.111Z,0.50
2023-02-18T10:51:47.158Z,0.51
2023-02-18T10:52:47.227Z,0.51
2023-02-18T10:53:47.303Z,0.51
2023-02-18T10:54:46.328Z,0.51
2023-02-18T10:55:46.394Z,0.50
2023-02-18T10:56:48.168Z,0.51
2023-02-18T10:57:47.494Z,0.51
2023-02-18T10:58:47.583Z,0.51
2023-02-18T10:59:47.600Z,0.51
2023-02-18T11:00:47.645Z,0.51
2023-02-18T11:01:47.778Z,0.52
2023-02-18T11:02:47.743Z,0.51
2023-02-18T11:03:47.773Z,0.52
2023-02-18T11:04:47.888Z,0.51
2023-02-18T11:05:47.879Z,0.52
2023-02-18T11:06:47.926Z,0.51
2023-02-18T11:07:46.960Z,0.51
2023-02-18T11:08:47.015Z,0.51
2023-02-18T11:09:48.073Z,0.51
2023-02-18T11:10:48.071Z,0.51
2023-02-18T11:11:50.637Z,0.51
2023-02-18T11:12:48.115Z,0.51
2023-02-18T11:13:48.107Z,0.51
2023-02-18T11:14:48.125Z,0.51
2023-02-18T11:15:47.150Z,0.50
2023-02-18T11:16:47.096Z,0.52
2023-02-18T11:17:47.077Z,0.50
2023-02-18T11:18:48.073Z,0.51
2023-02-18T11:19:47.051Z,0.50
2023-02-18T11:20:47.051Z,0.51
2023-02-18T11:21:47.041Z,0.51
2023-02-18T11:22:48.068Z,0.51
2023-02-18T11:23:48.029Z,0.51
2023-02-18T11:24:47.030Z,0.52
2023-02-18T11:25:48.076Z,0.51
2023-02-18T11:26:48.101Z,0.51
2023-02-18T11:27:48.167Z,0.52
2023-02-18T11:28:47.162Z,0.51
2023-02-18T11:29:47.181Z,0.52
2023-02-18T11:30:48.244Z,0.51
2023-02-18T11:31:48.373Z,0.51
2023-02-18T11:32:48.308Z,0.52
2023-02-18T11:33:47.335Z,0.52
2023-02-18T11:34:48.361Z,0.52
2023-02-18T11:35:47.400Z,0.51
2023-02-18T11:36:47.427Z,0.50
2023-02-18T11:37:48.613Z,0.51
2023-02-18T11:38:47.440Z,0.51
2023-02-18T11:39:48.442Z,0.52
2023-02-18T11:40:47.459Z,0.51
2023-02-18T11:41:48.424Z,0.50
2023-02-18T11:42:48.444Z,0.51
2023-02-18T11:43:48.457Z,0.51
2023-02-18T11:44:48.493Z,0.52
2023-02-18T11:45:47.461Z,0.51
2023-02-18T11:46:48.530Z,0.52
2023-02-18T11:47:47.449Z,0.52
2023-02-18T11:48:48.469Z,0.51
2023-02-18T11:49:48.449Z,0.52
2023-02-18T11:50:48.581Z,0.51
2023-02-18T11:51:48.444Z,0.52
2023-02-18T11:52:47.496Z,0.52
2023-02-18T11:53:48.462Z,0.51
2023-02-18T11:54:47.487Z,0.52
2023-02-18T11:55:48.472Z,0.51
2023-02-18T11:56:47.484Z,0.51
2023-02-18T11:57:48.459Z,0.50
2023-02-18T11:58:48.487Z,0.51
2023-02-18T11:59:48.488Z,0.53
2023-02-18T12:00:48.574Z,0.52
2023-02-18T12:01:48.499Z,0.52
2023-02-18T12:02:48.503Z,0.51
2023-02-18T12:03:47.498Z,0.51
2023-02-18T12:04:48.534Z,0.51
2023-02-18T12:05:48.523Z,0.51
2023-02-18T12:06:47.536Z,0.51
2023-02-18T12:07:48.532Z,0.50
2023-02-18T12:08:47.535Z,0.51
2023-02-18T12:09:48.554Z,0.51
2023-02-18T12:10:47.553Z,0.52
2023-02-18T12:11:48.561Z,0.52
2023-02-18T12:12:48.545Z,0.51
2023-02-18T12:13:48.552Z,0.52
2023-02-18T12:14:48.556Z,0.52
2023-02-18T12:15:48.562Z,0.51
2023-02-18T12:16:47.641Z,0.51
2023-02-18T12:17:48.563Z,0.50
2023-02-18T12:18:48.608Z,0.51
2023-02-18T12:19:48.554Z,0.52
2023-02-18T12:20:47.590Z,0.51
2023-02-18T12:21:48.568Z,0.51
2023-02-18T12:22:48.575Z,0.52
2023-02-18T12:23:48.605Z,0.52
2023-02-18T12:24:48.583Z,0.51
2023-02-18T12:25:48.608Z,0.51
2023-02-18T12:26:48.598Z,0.52
2023-02-18T12:27:48.616Z,0.52
2023-02-18T12:28:48.633Z,0.51
2023-02-18T12:29:48.628Z,0.52
2023-02-18T12:30:47.645Z,0.52
2023-02-18T12:31:48.696Z,0.52
2023-02-18T12:32:48.629Z,0.51
2023-02-18T12:33:47.629Z,0.51
2023-02-18T12:34:48.673Z,0.52
2023-02-18T12:35:48.640Z,0.52
2023-02-18T12:36:48.635Z,0.51
2023-02-18T12:37:48.646Z,0.51
2023-02-18T12:38:48.678Z,0.52
2023-02-18T12:39:48.638Z,0.51
2023-02-18T12:40:47.634Z,0.50
2023-02-18T12:41:47.658Z,0.51
2023-02-18T12:42:47.659Z,0.51
2023-02-18T12:43:48.700Z,0.51
2023-02-18T12:44:48.678Z,0.51
2023-02-18T12:45:48.711Z,0.51
2023-02-18T12:46:48.728Z,0.51
2023-02-18T12:47:48.676Z,0.51
2023-02-18T12:48:48.705Z,0.51
2023-02-18T12:49:47.700Z,0.51
2023-02-18T12:50:47.722Z,0.52
2023-02-18T12:51:48.724Z,0.51
2023-02-18T12:52:47.737Z,0.51
2023-02-18T12:53:48.744Z,0.52
2023-02-18T12:54:48.756Z,0.51
2023-02-18T12:55:48.777Z,0.51
2023-02-18T12:56:48.807Z,0.51
2023-02-18T12:57:47.803Z,0.51
2023-02-18T12:58:48.846Z,0.51
2023-02-18T12:59:47.874Z,0.51
2023-02-18T13:00:47.877Z,0.51
2023-02-18T13:01:48.885Z,0.51
2023-02-18T13:02:48.895Z,0.52
2023-02-18T13:03:48.941Z,0.51
2023-02-18T13:04:48.956Z,0.51
2023-02-18T13:05:48.988Z,0.51
2023-02-18T13:06:48.027Z,0.51
2023-02-18T13:07:49.032Z,0.51
2023-02-18T13:08:49.083Z,0.51
2023-02-18T13:09:48.086Z,0.50
2023-02-18T13:10:48.135Z,0.51
2023-02-18T13:11:48.153Z,0.50
2023-02-18T13:12:49.179Z,0.51
2023-02-18T13:13:49.229Z,0.51
2023-02-18T13:14:49.242Z,0.50
2023-02-18T13:15:49.311Z,0.50
2023-02-18T13:16:49.308Z,0.51
2023-02-18T13:17:48.317Z,0.50
2023-02-18T13:18:48.362Z,0.51